Time;durP1;ratioP1;P1;durP2;ratioP2;P2;SDS_P1;SDS_P2;PMS_P1;PMS_P2;Temp;Humidity;BMP_temperature;BMP_pressure;BME280_temperature;BME280_humidity;BME280_pressure;Samples;Min_cycle;Max_cycle;Signal;HPM_P1;HPM_P2
2023/08/13 00:01:27;;;;;;;4.72;0.88;;;;;;;;;;5117654;27;20024;-80
2023/08/13 00:03:53;;;;;;;4.10;1.00;;;;;;;;;;5120311;27;20027;-81
2023/08/13 00:06:18;;;;;;;2.53;1.35;;;21.50;97.60;;;;;;5119903;27;20091;-81
2023/08/13 00:08:44;;;;;;;5.20;0.73;;;;;;;;;;5104123;28;20084;-80
2023/08/13 00:11:11;;;;;;;2.78;1.02;;;;;;;;;;5109192;27;20081;-80
2023/08/13 00:13:40;;;;;;;3.33;1.40;;;21.50;97.70;;;;;;5115333;27;20024;-80
2023/08/13 00:16:07;;;;;;;2.35;0.95;;;;;;;;;;5100374;27;20142;-80
2023/08/13 00:18:33;;;;;;;8.18;1.88;;;;;;;;;;5110615;27;20019;-80
2023/08/13 00:20:59;;;;;;;4.28;1.08;;;;;;;;;;5129757;27;20041;-80
2023/08/13 00:23:26;;;;;;;2.28;1.30;;;;;;;;;;5108234;27;20031;-80
2023/08/13 00:25:52;;;;;;;1.42;0.80;;;;;;;;;;5123682;27;20329;-80
2023/08/13 00:28:18;;;;;;;2.78;1.10;;;;;;;;;;5128783;27;20031;-81
2023/08/13 00:30:43;;;;;;;1.50;0.70;;;21.30;95.30;;;;;;5127113;27;20062;-80
2023/08/13 00:33:09;;;;;;;1.60;0.88;;;;;;;;;;5119550;27;20034;-80
2023/08/13 00:35:35;;;;;;;1.23;0.85;;;;;;;;;;5094948;28;20024;-80
2023/08/13 00:38:02;;;;;;;4.95;2.28;;;;;;;;;;5116147;27;20027;-80
2023/08/13 00:40:28;;;;;;;3.00;1.10;;;20.70;99.90;;;;;;5098806;27;20103;-81
2023/08/13 00:42:54;;;;;;;1.00;0.90;;;;;;;;;;5108365;27;20161;-80
2023/08/13 00:45:20;;;;;;;1.83;1.17;;;;;;;;;;5103526;27;20108;-80
2023/08/13 00:47:47;;;;;;;0.93;0.80;;;20.80;93.60;;;;;;5104021;27;20385;-80
2023/08/13 00:50:13;;;;;;;2.30;0.93;;;;;;;;;;5115717;27;20031;-80
2023/08/13 00:52:39;;;;;;;2.80;1.77;;;;;;;;;;5125777;27;20887;-80
2023/08/13 00:55:05;;;;;;;6.38;1.48;;;20.70;99.00;;;;;;5110707;27;20034;-80
2023/08/13 00:57:31;;;;;;;4.20;1.40;;;;;;;;;;5123592;27;20115;-80
2023/08/13 00:59:59;;;;;;;2.78;1.15;;;20.70;94.00;;;;;;5114275;27;20084;-80
2023/08/13 01:02:25;;;;;;;1.10;0.90;;;;;;;;;;5094238;27;20498;-80
2023/08/13 01:04:51;;;;;;;6.93;1.10;;;;;;;;;;5115795;27;20027;-80
2023/08/13 01:07:31;;;;;;;1.35;1.02;;;20.40;99.90;;;;;;5100042;27;20016;-80
2023/08/13 01:10:33;;;;;;;3.55;1.40;;;20.60;94.80;;;;;;5117679;27;20054;-80
2023/08/13 01:13:17;;;;;;;2.47;1.00;;;20.60;94.80;;;;;;5097000;27;20449;-80
2023/08/13 01:15:44;;;;;;;2.30;1.20;;;20.60;95.00;;;;;;5114753;27;20027;-80
2023/08/13 01:18:11;;;;;;;7.18;1.20;;;20.70;94.90;;;;;;5095614;27;20019;-80
2023/08/13 01:20:38;;;;;;;;;;;20.70;96.40;;;;;;5109384;27;20027;-80
2023/08/13 01:23:04;;;;;;;1.35;0.95;;;;;;;;;;5128552;27;20390;-80
2023/08/13 01:25:31;;;;;;;3.13;1.00;;;20.40;95.40;;;;;;5104033;27;20097;-80
2023/08/13 01:28:17;;;;;;;2.95;1.00;;;20.20;96.20;;;;;;5118197;27;20046;-80
2023/08/13 01:30:52;;;;;;;1.58;1.27;;;20.30;96.10;;;;;;5117777;27;20135;-81
2023/08/13 01:33:26;;;;;;;1.55;1.00;;;20.00;96.50;;;;;;5094157;27;20028;-80
2023/08/13 01:36:04;;;;;;;3.10;1.25;;;20.20;96.80;;;;;;5118082;27;20020;-80
2023/08/13 01:38:31;;;;;;;3.65;1.13;;;20.10;97.30;;;;;;5093256;27;20030;-80
2023/08/13 01:40:57;;;;;;;4.35;1.13;;;;;;;;;;5107016;27;20109;-80
2023/08/13 01:43:23;;;;;;;4.13;1.55;;;;;;;;;;5129714;27;20027;-80
2023/08/13 01:45:49;;;;;;;2.55;1.35;;;;;;;;;;5104417;27;20046;-80
2023/08/13 01:48:15;;;;;;;2.92;1.67;;;;;;;;;;5131537;27;20057;-80
2023/08/13 01:50:41;;;;;;;3.15;1.35;;;;;;;;;;5105537;27;20069;-80
2023/08/13 01:53:07;;;;;;;1.90;1.23;;;;;;;;;;5129075;27;20026;-80
2023/08/13 01:55:34;;;;;;;1.42;0.98;;;;;;;;;;5110713;27;20461;-80
2023/08/13 01:58:00;;;;;;;2.03;0.90;;;;;;;;;;5123736;27;20050;-80
2023/08/13 02:00:26;;;;;;;3.53;1.80;;;;;;;;;;5115404;27;20405;-80
2023/08/13 02:02:52;;;;;;;2.22;1.10;;;;;;;;;;5118530;27;20034;-80
2023/08/13 02:05:18;;;;;;;1.52;0.95;;;;;;;;;;5120604;27;20011;-80
2023/08/13 02:07:44;;;;;;;3.75;1.17;;;;;;;;;;5113033;27;20841;-79
2023/08/13 02:10:11;;;;;;;1.35;0.80;;;;;;;;;;5125146;27;20047;-80
2023/08/13 02:12:37;;;;;;;2.22;1.10;;;;;;;;;;5108203;27;20056;-80
2023/08/13 02:15:03;;;;;;;1.02;0.90;;;;;;;;;;5124343;27;20034;-80
2023/08/13 02:17:29;;;;;;;2.75;1.73;;;;;;;;;;5108133;27;20027;-80
2023/08/13 02:19:55;;;;;;;3.10;1.33;;;;;;;;;;5127573;27;20024;-80
2023/08/13 02:22:21;;;;;;;3.92;1.30;;;;;;;;;;5103597;27;20450;-80
2023/08/13 02:24:47;;;;;;;2.50;1.25;;;;;;;;;;5129183;27;20027;-80
2023/08/13 02:27:13;;;;;;;4.75;1.08;;;;;;;;;;5101801;27;20367;-80
2023/08/13 02:29:39;;;;;;;1.60;1.20;;;;;;;;;;5089846;28;20048;-80
2023/08/13 02:32:05;;;;;;;2.92;1.52;;;;;;;;;;5115602;27;20114;-80
2023/08/13 02:34:45;;;;;;;3.78;1.05;;;20.00;99.30;;;;;;5092658;27;20024;-80
2023/08/13 02:37:11;;;;;;;5.07;1.33;;;;;;;;;;5114167;27;20019;-80
2023/08/13 02:39:37;;;;;;;4.00;1.23;;;;;;;;;;5093707;27;20032;-80
2023/08/13 02:42:04;;;;;;;1.77;1.00;;;;;;;;;;5108664;27;20015;-80
2023/08/13 02:44:30;;;;;;;2.50;1.02;;;;;;;;;;5098926;27;20400;-81
2023/08/13 02:46:56;;;;;;;4.05;1.23;;;;;;;;;;5103582;27;20068;-80
2023/08/13 02:49:22;;;;;;;2.80;1.02;;;;;;;;;;5103813;27;20074;-80
2023/08/13 02:51:48;;;;;;;1.63;1.27;;;20.00;99.90;;;;;;5097616;27;20423;-80
2023/08/13 02:54:14;;;;;;;4.90;1.05;;;;;;;;;;5108780;27;20078;-80
2023/08/13 02:56:41;;;;;;;4.35;1.30;;;19.80;99.90;;;;;;5094802;27;20028;-80
2023/08/13 02:59:07;;;;;;;6.50;1.15;;;;;;;;;;5112589;27;20027;-80
2023/08/13 03:01:33;;;;;;;2.00;1.10;;;;;;;;;;5094981;27;20020;-80
2023/08/13 03:04:02;;;;;;;2.33;1.05;;;;;;;;;;5105954;27;20592;-80
2023/08/13 03:06:29;;;;;;;7.32;1.75;;;;;;;;;;5094712;28;20028;-80
2023/08/13 03:08:55;;;;;;;4.97;1.50;;;;;;;;;;5102723;27;20035;-80
2023/08/13 03:11:21;;;;;;;9.07;1.35;;;;;;;;;;5091308;28;20103;-79
2023/08/13 03:13:47;;;;;;;4.88;0.90;;;;;;;;;;5115258;28;20078;-80
2023/08/13 03:16:13;;;;;;;2.22;0.95;;;;;;;;;;5089114;28;20047;-80
2023/08/13 03:18:39;;;;;;;1.20;1.10;;;;;;;;;;5097093;28;20027;-80
2023/08/13 03:21:05;;;;;;;3.42;1.20;;;;;;;;;;5129137;28;20076;-80
2023/08/13 03:23:32;;;;;;;2.08;0.90;;;;;;;;;;5109466;28;20032;-80
2023/08/13 03:25:58;;;;;;;1.77;0.98;;;19.60;99.90;;;;;;5091302;28;20031;-80
2023/08/13 03:28:24;;;;;;;2.08;1.48;;;;;;;;;;5112084;27;20050;-80
2023/08/13 03:30:56;;;;;;;11.32;1.63;;;19.20;99.90;;;;;;5121473;27;20577;-80
2023/08/13 03:33:22;;;;;;;2.08;1.13;;;;;;;;;;5121569;27;20050;-80
2023/08/13 03:35:48;;;;;;;2.08;1.38;;;;;;;;;;5118290;27;20022;-80
2023/08/13 03:38:14;;;;;;;1.35;1.00;;;19.20;99.90;;;;;;5110463;27;20370;-80
2023/08/13 03:40:40;;;;;;;1.42;0.93;;;;;;;;;;5112866;27;20114;-80
2023/08/13 03:43:06;;;;;;;3.53;1.13;;;;;;;;;;5128387;27;20127;-80
2023/08/13 03:45:32;;;;;;;3.30;1.52;;;;;;;;;;5110758;27;20045;-80
2023/08/13 03:47:58;;;;;;;3.25;1.33;;;;;;;;;;5111794;27;20489;-80
2023/08/13 03:50:24;;;;;;;2.33;1.23;;;;;;;;;;5109697;27;20027;-80
2023/08/13 03:52:50;;;;;;;2.05;1.17;;;;;;;;;;5130832;27;20023;-81
2023/08/13 03:55:16;;;;;;;2.75;1.20;;;;;;;;;;5107786;27;20090;-80
2023/08/13 03:57:42;;;;;;;2.03;1.23;;;;;;;;;;5133773;27;20066;-80
2023/08/13 04:00:08;;;;;;;4.03;1.65;;;19.00;99.90;;;;;;5120075;27;20059;-80
2023/08/13 04:02:34;;;;;;;6.15;1.67;;;;;;;;;;5093480;28;20081;-80
2023/08/13 04:05:01;;;;;;;2.10;0.98;;;19.10;99.90;;;;;;5114725;27;20027;-80
2023/08/13 04:07:26;;;;;;;2.95;0.90;;;;;;;;;;5098531;27;20072;-80
2023/08/13 04:09:52;;;;;;;2.40;1.98;;;;;;;;;;5108837;27;20042;-80
2023/08/13 04:12:18;;;;;;;5.93;1.52;;;19.70;99.90;;;;;;5103974;27;20024;-79
2023/08/13 04:14:44;;;;;;;4.18;1.35;;;;;;;;;;5109571;27;20401;-80
2023/08/13 04:17:10;;;;;;;2.67;1.05;;;19.50;99.90;;;;;;5125389;27;20023;-80
2023/08/13 04:19:36;;;;;;;2.35;1.42;;;;;;;;;;5126008;27;20501;-80
2023/08/13 04:22:01;;;;;;;2.45;1.40;;;;;;;;;;5110698;27;20076;-80
2023/08/13 04:24:28;;;;;;;5.18;1.10;;;;;;;;;;5127023;27;20080;-80
2023/08/13 04:26:54;;;;;;;3.20;1.25;;;;;;;;;;5113404;27;20016;-80
2023/08/13 04:29:20;;;;;;;3.70;1.50;;;;;;;;;;5092680;27;20055;-80
2023/08/13 04:31:46;;;;;;;2.75;1.30;;;;;;;;;;5107343;28;20012;-80
2023/08/13 04:34:11;;;;;;;4.75;1.00;;;19.40;99.90;;;;;;5128767;28;20026;-80
2023/08/13 04:36:37;;;;;;;2.47;1.00;;;;;;;;;;5119629;28;20038;-80
2023/08/13 04:39:03;;;;;;;2.03;1.00;;;18.20;99.90;;;;;;5088720;28;20108;-80
2023/08/13 04:41:29;;;;;;;2.17;1.20;;;;;;;;;;5099061;28;20077;-80
2023/08/13 04:43:55;;;;;;;3.58;1.45;;;;;;;;;;5131095;28;20031;-80
2023/08/13 04:46:21;;;;;;;2.13;1.27;;;;;;;;;;5101674;28;20051;-80
2023/08/13 04:48:48;;;;;;;2.63;1.30;;;18.90;99.90;;;;;;5128268;28;20106;-80
2023/08/13 04:51:17;;;;;;;6.60;1.73;;;18.90;99.90;;;;;;5103858;28;20191;-80
2023/08/13 04:53:43;;;;;;;2.10;1.17;;;;;;;;;;5126037;28;20495;-80
2023/08/13 04:56:09;;;;;;;3.60;1.75;;;;;;;;;;5119094;28;20173;-80
2023/08/13 04:58:35;;;;;;;1.65;0.88;;;;;;;;;;5115493;28;20528;-80
2023/08/13 05:01:02;;;;;;;2.17;1.00;;;;;;;;;;5119641;28;20683;-80
2023/08/13 05:03:28;;;;;;;2.15;1.05;;;;;;;;;;5110599;28;20027;-80
2023/08/13 05:05:54;;;;;;;2.67;0.88;;;18.90;99.90;;;;;;5124738;28;20119;-80
2023/08/13 05:08:20;;;;;;;3.17;1.20;;;;;;;;;;5108331;28;20495;-80
2023/08/13 05:10:47;;;;;;;2.20;1.08;;;;;;;;;;5108542;28;20499;-80
2023/08/13 05:13:13;;;;;;;3.47;1.30;;;19.70;99.90;;;;;;5108777;28;20012;-80
2023/08/13 05:15:40;;;;;;;1.65;0.90;;;;;;;;;;5092879;28;20623;-80
2023/08/13 05:18:06;;;;;;;3.03;1.25;;;;;;;;;;5115543;28;20034;-80
2023/08/13 05:20:32;;;;;;;3.25;1.02;;;;;;;;;;5089692;28;20103;-80
2023/08/13 05:22:58;;;;;;;2.70;1.15;;;;;;;;;;5103874;28;20110;-80
2023/08/13 05:25:24;;;;;;;2.58;1.45;;;;;;;;;;5126431;28;20069;-80
2023/08/13 05:27:50;;;;;;;11.57;1.83;;;;;;;;;;5115967;28;20405;-80
2023/08/13 05:30:16;;;;;;;3.50;1.65;;;;;;;;;;5088185;27;1215906;-80
2023/08/13 05:32:42;;;;;;;2.95;1.88;;;;;;;;;;5113527;27;20494;-80
2023/08/13 05:35:08;;;;;;;2.97;1.63;;;;;;;;;;5121836;27;20163;-80
2023/08/13 05:37:34;;;;;;;10.60;2.03;;;;;;;;;;5105729;28;20382;-80
2023/08/13 05:40:00;;;;;;;5.82;1.55;;;;;;;;;;5124196;27;20435;-80
2023/08/13 05:42:26;;;;;;;1.42;1.20;;;;;;;;;;5122975;27;20020;-80
2023/08/13 05:44:52;;;;;;;4.18;1.70;;;;;;;;;;5111157;27;20072;-80
2023/08/13 05:47:18;;;;;;;1.90;1.20;;;;;;;;;;5125955;27;20021;-80
2023/08/13 05:49:44;;;;;;;2.30;1.45;;;21.20;99.90;;;;;;5107095;27;20049;-80
2023/08/13 05:52:10;;;;;;;3.55;1.45;;;;;;;;;;5108351;27;20015;-80
2023/08/13 05:54:36;;;;;;;3.25;1.60;;;;;;;;;;5113831;27;20095;-80
2023/08/13 05:57:02;;;;;;;2.80;1.42;;;;;;;;;;5091328;27;20035;-80
2023/08/13 05:59:27;;;;;;;4.22;1.63;;;21.40;99.90;;;;;;5102948;27;20101;-80
2023/08/13 06:01:53;;;;;;;3.63;1.52;;;;;;;;;;5112321;27;20054;-80
2023/08/13 06:04:19;;;;;;;4.03;1.30;;;;;;;;;;5102785;27;20379;-80
2023/08/13 06:06:45;;;;;;;2.67;1.40;;;;;;;;;;5131188;27;20034;-80
2023/08/13 06:09:11;;;;;;;4.28;1.80;;;;;;;;;;5107585;27;20036;-80
2023/08/13 06:11:37;;;;;;;3.50;2.08;;;;;;;;;;5125460;27;20088;-80
2023/08/13 06:14:03;;;;;;;2.85;1.83;;;;;;;;;;5113153;27;20216;-80
2023/08/13 06:16:29;;;;;;;3.15;1.65;;;;;;;;;;5120252;27;20034;-80
2023/08/13 06:18:55;;;;;;;4.82;1.70;;;;;;;;;;5117543;27;20024;-80
2023/08/13 06:21:21;;;;;;;6.57;2.60;;;;;;;;;;5091888;28;20451;-80
2023/08/13 06:23:47;;;;;;;2.85;1.80;;;22.90;95.30;;;;;;5097249;27;20023;-80
2023/08/13 06:26:13;;;;;;;2.25;1.30;;;;;;;;;;5101802;28;20015;-80
2023/08/13 06:28:40;;;;;;;2.58;1.58;;;;;;;;;;5104396;27;20325;-80
2023/08/13 06:31:06;;;;;;;2.13;1.38;;;;;;;;;;5112461;27;20062;-80
2023/08/13 06:33:32;;;;;;;4.63;1.65;;;;;;;;;;5094402;27;20047;-80
2023/08/13 06:35:58;;;;;;;4.90;2.30;;;;;;;;;;5113226;27;20103;-80
2023/08/13 06:38:25;;;;;;;2.67;1.08;;;24.90;92.30;;;;;;5092573;28;20111;-80
2023/08/13 06:40:51;;;;;;;;;;;25.00;80.10;;;;;;5115402;27;20446;-80
2023/08/13 06:43:17;;;;;;;3.87;1.70;;;;;;;;;;5090894;28;20000;-80
2023/08/13 06:45:43;;;;;;;2.08;0.85;;;;;;;;;;5103713;27;20027;-80
2023/08/13 06:48:09;;;;;;;2.67;1.17;;;;;;;;;;5130261;27;20026;-81
2023/08/13 06:50:35;;;;;;;2.22;1.42;;;;;;;;;;5118402;27;20035;-80
2023/08/13 06:53:01;;;;;;;1.73;1.17;;;;;;;;;;5094458;27;20036;-80
2023/08/13 06:55:27;;;;;;;5.05;1.60;;;;;;;;;;5097826;28;20061;-80
2023/08/13 06:57:53;;;;;;;3.40;1.13;;;;;;;;;;5125213;27;20027;-80
2023/08/13 07:00:20;;;;;;;3.10;1.45;;;;;;;;;;5104755;28;20047;-80
2023/08/13 07:02:46;;;;;;;6.20;1.20;;;;;;;;;;5122197;27;20046;-80
2023/08/13 07:05:14;;;;;;;6.45;1.95;;;;;;;;;;5116066;27;20033;-80
2023/08/13 07:07:41;;;;;;;6.03;1.90;;;;;;;;;;5110220;27;20038;-80
2023/08/13 07:10:07;;;;;;;1.77;1.35;;;41.70;44.90;;;;;;5112433;27;20031;-80
2023/08/13 07:12:33;;;;;;;5.55;1.52;;;;;;;;;;5112296;27;20485;-81
2023/08/13 07:14:59;;;;;;;3.00;1.00;;;;;;;;;;5094181;28;20017;-80
2023/08/13 07:17:25;;;;;;;3.28;1.05;;;;;;;;;;5112364;28;20336;-81
2023/08/13 07:19:51;;;;;;;1.90;1.15;;;;;;;;;;5091670;28;20023;-81
2023/08/13 07:22:18;;;;;;;;;;;49.50;32.80;;;;;;5114892;28;20051;-81
2023/08/13 07:24:44;;;;;;;4.50;0.88;;;;;;;;;;5090828;28;19940;-81
2023/08/13 07:27:10;;;;;;;1.50;0.80;;;50.70;32.80;;;;;;5100979;28;20060;-81
2023/08/13 07:29:36;;;;;;;3.35;0.88;;;;;;;;;;5091549;28;20395;-81
2023/08/13 07:32:03;;;;;;;2.25;0.88;;;;;;;;;;5113082;28;20027;-81
2023/08/13 07:34:28;;;;;;;1.30;0.80;;;53.10;38.10;;;;;;5093108;28;20517;-81
2023/08/13 07:36:54;;;;;;;0.82;0.52;;;;;;;;;;5097625;28;20023;-81
2023/08/13 07:39:21;;;;;;;0.93;0.52;;;;;;;;;;5125189;28;20445;-81
2023/08/13 07:41:49;;;;;;;2.38;0.77;;;;;;;;;;5115436;28;20110;-81
2023/08/13 07:44:15;;;;;;;1.40;0.70;;;;;;;;;;5115775;28;20045;-81
2023/08/13 07:46:41;;;;;;;0.82;0.68;;;;;;;;;;5119942;28;20039;-81
2023/08/13 07:49:07;;;;;;;2.53;0.77;;;56.50;34.00;;;;;;5110436;28;20139;-81
2023/08/13 07:51:33;;;;;;;1.13;0.65;;;;;;;;;;5123446;28;20442;-81
2023/08/13 07:53:59;;;;;;;2.08;0.77;;;;;;;;;;5107165;28;20022;-81
2023/08/13 07:56:25;;;;;;;1.58;0.70;;;;;;;;;;5123608;28;20031;-81
2023/08/13 07:58:51;;;;;;;0.95;0.85;;;;;;;;;;5106460;28;20130;-81
2023/08/13 08:01:17;;;;;;;1.67;0.77;;;;;;;;;;5126601;28;20034;-82
2023/08/13 08:03:44;;;;;;;1.63;1.38;;;57.90;26.80;;;;;;5098030;28;20068;-81
2023/08/13 08:06:12;;;;;;;2.65;0.93;;;;;;;;;;5127140;28;20405;-81
2023/08/13 08:08:38;;;;;;;4.75;1.10;;;59.30;31.30;;;;;;5099302;28;20515;-81
2023/08/13 08:11:03;;;;;;;5.45;1.10;;;;;;;;;;5129372;28;20035;-81
2023/08/13 08:13:32;;;;;;;1.10;0.80;;;;;;;;;;5106334;27;20426;-82
2023/08/13 08:15:57;;;;;;;2.30;1.08;;;60.40;30.40;;;;;;5131186;27;20027;-81
2023/08/13 08:18:23;;;;;;;1.20;0.95;;;;;;;;;;5112081;27;20022;-81
2023/08/13 08:20:49;;;;;;;1.60;1.50;;;;;;;;;;5125135;27;20058;-81
2023/08/13 08:23:15;;;;;;;1.65;0.95;;;;;;;;;;5117118;27;20031;-82
2023/08/13 08:25:42;;;;;;;4.47;1.00;;;;;;;;;;5113338;27;20024;-81
2023/08/13 08:28:07;;;;;;;1.50;1.05;;;61.20;29.50;;;;;;5113083;27;20493;-82
2023/08/13 08:30:33;;;;;;;1.90;1.35;;;;;;;;;;5117817;27;20077;-81
2023/08/13 08:32:59;;;;;;;1.10;1.00;;;;;;;;;;5107986;27;20021;-81
2023/08/13 08:35:25;;;;;;;2.03;1.30;;;;;;;;;;5115203;27;20031;-82
2023/08/13 08:37:51;;;;;;;2.15;1.20;;;;;;;;;;5096782;27;20442;-81
2023/08/13 08:40:17;;;;;;;1.30;1.17;;;;;;;;;;5114913;27;20027;-81
2023/08/13 08:42:43;;;;;;;1.90;1.20;;;;;;;;;;5094712;27;20465;-82
2023/08/13 08:45:10;;;;;;;2.15;1.27;;;62.50;22.80;;;;;;5094365;27;20035;-82
2023/08/13 08:47:39;;;;;;;1.35;1.13;;;62.80;22.90;;;;;;5094539;27;20032;-82
2023/08/13 08:50:06;;;;;;;2.05;1.58;;;;;;;;;;5117043;27;20039;-82
2023/08/13 08:52:34;;;;;;;1.30;1.20;;;63.20;22.60;;;;;;5091584;28;20031;-82
2023/08/13 08:55:00;;;;;;;3.80;1.23;;;;;;;;;;5118617;27;20039;-82
2023/08/13 08:57:26;;;;;;;1.38;1.20;;;;;;;;;;5092888;27;20036;-82
2023/08/13 08:59:52;;;;;;;1.42;1.33;;;;;;;;;;5099614;27;20069;-81
2023/08/13 09:02:18;;;;;;;1.77;1.67;;;;;;;;;;5093967;28;20024;-81
2023/08/13 09:04:44;;;;;;;1.55;1.30;;;;;;;;;;5102020;27;20023;-81
2023/08/13 09:07:10;;;;;;;2.65;1.33;;;;;;;;;;5102299;27;20470;-82
2023/08/13 09:09:37;;;;;;;1.38;1.23;;;;;;;;;;5102946;27;20031;-81
2023/08/13 09:12:03;;;;;;;1.95;1.40;;;62.90;21.90;;;;;;5107399;27;20028;-81
2023/08/13 09:14:29;;;;;;;1.13;1.00;;;;;;;;;;5098034;27;20074;-82
2023/08/13 09:16:56;;;;;;;2.35;1.63;;;63.00;21.80;;;;;;5112593;27;20711;-82
2023/08/13 09:19:24;;;;;;;1.42;1.13;;;62.80;28.40;;;;;;5100889;27;20353;-81
2023/08/13 09:21:51;;;;;;;3.35;1.60;;;63.00;21.90;;;;;;5109207;27;20023;-82
2023/08/13 09:24:17;;;;;;;1.20;1.10;;;;;;;;;;5125207;27;20105;-82
2023/08/13 09:26:44;;;;;;;2.10;1.63;;;63.40;25.00;;;;;;5107945;28;20437;-83
2023/08/13 09:29:10;;;;;;;2.28;1.48;;;;;;;;;;5121989;27;20046;-82
2023/08/13 09:31:36;;;;;;;3.03;1.30;;;;;;;;;;5122827;27;20027;-82
2023/08/13 09:34:02;;;;;;;2.55;1.48;;;;;;;;;;5092397;27;20020;-82
2023/08/13 09:36:29;;;;;;;2.00;1.27;;;63.70;28.40;;;;;;5118070;27;20080;-82
2023/08/13 09:38:55;;;;;;;1.20;1.10;;;;;;;;;;5090516;28;20115;-82
2023/08/13 09:41:21;;;;;;;1.40;1.17;;;;;;;;;;5114333;27;20422;-82
2023/08/13 09:43:47;;;;;;;1.45;1.10;;;;;;;;;;5095350;27;20391;-82
2023/08/13 09:46:19;;;;;;;2.40;1.30;;;63.60;21.40;;;;;;5109797;27;20047;-82
2023/08/13 09:48:46;;;;;;;1.63;1.20;;;63.70;21.40;;;;;;5098109;27;20081;-82
2023/08/13 09:51:13;;;;;;;2.25;1.20;;;63.70;21.30;;;;;;5105387;27;20026;-82
2023/08/13 09:53:42;;;;;;;1.30;1.20;;;63.60;21.40;;;;;;5103243;27;20126;-82
2023/08/13 09:56:09;;;;;;;2.53;1.30;;;;;;;;;;5101521;27;20019;-83
2023/08/13 09:58:35;;;;;;;1.42;1.20;;;;;;;;;;5106910;27;20463;-82
2023/08/13 10:01:01;;;;;;;2.20;1.20;;;63.50;21.20;;;;;;5096942;27;20035;-82
2023/08/13 10:03:28;;;;;;;1.98;1.15;;;;;;;;;;5111463;27;20036;-82
2023/08/13 10:05:55;;;;;;;1.73;1.00;;;63.10;21.20;;;;;;5095711;27;20163;-82
2023/08/13 10:08:21;;;;;;;1.63;1.30;;;63.20;21.20;;;;;;5099741;27;20027;-82
2023/08/13 10:10:48;;;;;;;1.67;1.10;;;63.20;21.20;;;;;;5125904;27;20028;-82
2023/08/13 10:13:14;;;;;;;2.42;1.15;;;;;;;;;;5107564;27;20026;-82
2023/08/13 10:15:41;;;;;;;0.80;0.77;;;63.00;21.20;;;;;;5127879;27;20122;-82
2023/08/13 10:18:07;;;;;;;1.40;1.00;;;;;;;;;;5105303;27;20599;-82
2023/08/13 10:20:33;;;;;;;1.50;1.10;;;;;;;;;;5129829;27;20027;-82
2023/08/13 10:23:01;;;;;;;3.75;1.27;;;;;;;;;;5103867;27;20185;-82
2023/08/13 10:25:27;;;;;;;1.30;1.20;;;;;;;;;;5125510;27;20439;-82
2023/08/13 10:27:54;;;;;;;2.10;1.10;;;63.70;21.10;;;;;;5122172;27;20074;-82
2023/08/13 10:30:20;;;;;;;5.03;2.50;;;;;;;;;;5130827;27;20111;-82
2023/08/13 10:32:59;;;;;;;1.35;1.00;;;59.80;29.40;;;;;;5111943;27;20432;-82
2023/08/13 10:35:29;;;;;;;4.25;1.17;;;61.00;21.90;;;;;;5127350;27;20528;-83
2023/08/13 10:38:00;;;;;;;2.13;0.88;;;61.50;24.80;;;;;;5111701;27;20031;-82
2023/08/13 10:40:26;;;;;;;1.10;0.80;;;62.20;27.90;;;;;;5091785;28;20438;-83
2023/08/13 10:42:54;;;;;;;1.77;0.90;;;62.00;21.30;;;;;;5110275;27;20015;-82
2023/08/13 10:45:23;;;;;;;2.78;0.80;;;60.80;21.40;;;;;;5103054;27;20031;-82
2023/08/13 10:47:51;;;;;;;3.13;0.65;;;59.20;21.90;;;;;;5100251;27;20016;-82
2023/08/13 10:50:17;;;;;;;4.75;0.88;;;;;;;;;;5106194;27;20040;-82
2023/08/13 10:52:47;;;;;;;1.27;0.85;;;58.70;22.50;;;;;;5095304;27;20020;-82
2023/08/13 10:55:13;;;;;;;2.95;0.90;;;;;;;;;;5110242;27;20028;-82
2023/08/13 10:57:39;;;;;;;2.65;1.00;;;61.80;22.20;;;;;;5094887;27;20044;-82
2023/08/13 11:00:06;;;;;;;1.65;1.08;;;58.50;22.30;;;;;;5095349;27;20027;-82
2023/08/13 11:02:32;;;;;;;1.83;0.70;;;;;;;;;;5125196;27;20050;-83
2023/08/13 11:04:59;;;;;;;1.63;0.80;;;;;;;;;;5103095;28;20402;-83
2023/08/13 11:07:25;;;;;;;0.95;0.65;;;58.90;28.20;;;;;;5109364;28;20520;-82
2023/08/13 11:09:51;;;;;;;0.73;0.70;;;58.70;28.40;;;;;;5114955;27;20038;-82
2023/08/13 11:12:17;;;;;;;1.58;0.82;;;;;;;;;;5090034;28;20055;-81
2023/08/13 11:14:43;;;;;;;2.70;0.82;;;;;;;;;;5101766;28;20028;-82
2023/08/13 11:17:09;;;;;;;2.55;0.95;;;;;;;;;;5131081;28;20102;-82
2023/08/13 11:19:35;;;;;;;1.50;0.90;;;;;;;;;;5106288;28;20462;-82
2023/08/13 11:22:02;;;;;;;1.50;0.80;;;57.60;28.20;;;;;;5125292;28;20329;-82
2023/08/13 11:24:31;;;;;;;4.15;0.85;;;56.60;22.20;;;;;;5111030;28;20122;-82
2023/08/13 11:26:57;;;;;;;1.90;1.00;;;53.60;27.70;;;;;;5107244;28;20024;-82
2023/08/13 11:29:24;;;;;;;0.75;0.65;;;;;;;;;;5109782;28;20043;-83
2023/08/13 11:31:50;;;;;;;2.22;0.80;;;;;;;;;;5103302;28;20469;-82
2023/08/13 11:34:17;;;;;;;2.75;1.10;;;55.70;29.10;;;;;;5098117;28;20020;-82
2023/08/13 11:36:49;;;;;;;7.65;0.90;;;56.80;22.40;;;;;;5108072;28;20035;-82
2023/08/13 11:39:17;;;;;;;2.50;0.93;;;57.50;22.00;;;;;;5097434;28;20061;-83
2023/08/13 11:41:44;;;;;;;5.97;1.10;;;52.30;22.80;;;;;;5109196;28;20106;-82
2023/08/13 11:44:13;;;;;;;0.95;0.60;;;;;;;;;;5107151;28;20410;-82
2023/08/13 11:46:56;;;;;;;1.50;0.70;;;44.00;26.50;;;;;;5107250;27;20031;-82
2023/08/13 11:49:23;;;;;;;1.58;0.90;;;42.20;40.10;;;;;;5128096;27;20127;-81
2023/08/13 11:51:49;;;;;;;2.58;0.85;;;;;;;;;;5110789;27;20049;-81
2023/08/13 11:54:18;;;;;;;2.28;0.95;;;43.40;28.20;;;;;;5128424;27;20055;-82
2023/08/13 11:56:44;;;;;;;1.70;1.38;;;;;;;;;;5115485;27;20011;-81
2023/08/13 11:59:09;;;;;;;;;;;44.20;27.50;;;;;;5131547;27;20486;-82
2023/08/13 12:01:37;;;;;;;3.90;1.08;;;46.30;26.80;;;;;;5108256;27;19911;-83
2023/08/13 12:04:04;;;;;;;1.33;0.70;;;46.70;26.30;;;;;;5132796;27;20029;-81
2023/08/13 12:06:30;;;;;;;1.63;0.90;;;;;;;;;;5106904;27;20028;-82
2023/08/13 12:08:59;;;;;;;2.53;0.73;;;45.20;27.00;;;;;;5133773;27;20447;-82
2023/08/13 12:11:25;;;;;;;1.48;0.98;;;;;;;;;;5108307;27;20093;-83
2023/08/13 12:13:51;;;;;;;1.73;0.80;;;;;;;;;;5130819;27;20027;-82
2023/08/13 12:16:16;;;;;;;2.13;1.00;;;39.90;43.50;;;;;;5113493;27;20016;-82
2023/08/13 12:18:42;;;;;;;4.72;1.10;;;;;;;;;;5125179;27;20038;-82
2023/08/13 12:21:08;;;;;;;2.13;1.30;;;;;;;;;;5118834;27;20016;-81
2023/08/13 12:23:34;;;;;;;2.97;1.20;;;;;;;;;;5119815;27;20404;-81
2023/08/13 12:26:01;;;;;;;2.25;1.10;;;;;;;;;;5122109;27;20047;-81
2023/08/13 12:28:28;;;;;;;2.83;1.45;;;;;;;;;;5103058;27;20032;-81
2023/08/13 12:30:53;;;;;;;;;;;39.70;32.10;;;;;;5107934;27;20131;-82
2023/08/13 12:33:19;;;;;;;;;;;40.00;32.60;;;;;;5111459;27;19947;-82
2023/08/13 12:35:44;;;;;;;;;;;39.40;32.30;;;;;;5108823;27;20235;-82
2023/08/13 12:38:10;;;;;;;;;;;38.50;34.10;;;;;;5111368;27;19914;-82
2023/08/13 12:40:35;;;;;;;;;;;37.80;34.50;;;;;;5130571;27;19908;-82
2023/08/13 12:43:02;;;;;;;;;;;36.90;35.40;;;;;;5107489;27;19942;-82
2023/08/13 12:45:28;;;;;;;;;;;36.20;35.70;;;;;;5131745;27;19907;-83
2023/08/13 12:47:53;;;;;;;;;;;35.60;36.70;;;;;;5107116;27;19934;-82
2023/08/13 12:50:19;;;;;;;;;;;35.70;38.30;;;;;;5132842;27;19926;-83
2023/08/13 12:52:44;;;;;;;;;;;36.40;37.90;;;;;;5108750;27;19951;-81
2023/08/13 12:55:10;;;;;;;;;;;36.90;36.40;;;;;;5129151;27;19907;-82
2023/08/13 12:57:35;;;;;;;;;;;36.80;36.10;;;;;;5115283;27;20340;-82
2023/08/13 13:00:01;;;;;;;;;;;37.00;36.40;;;;;;5116949;27;19926;-82
2023/08/13 13:02:26;;;;;;;;;;;37.00;36.60;;;;;;5116124;27;19907;-82
2023/08/13 13:04:52;;;;;;;;;;;36.70;36.30;;;;;;5107676;27;19969;-82
2023/08/13 13:07:17;;;;;;;;;;;36.60;36.50;;;;;;5099781;27;20293;-82
2023/08/13 13:09:43;;;;;;;;;;;36.80;36.50;;;;;;5112208;27;19912;-81
2023/08/13 13:12:08;;;;;;;;;;;36.80;36.40;;;;;;5097502;27;20003;-81
2023/08/13 13:14:34;;;;;;;;;;;36.40;36.90;;;;;;5101215;27;20295;-82
2023/08/13 13:16:59;;;;;;;;;;;36.20;36.70;;;;;;5128045;27;19933;-81
2023/08/13 13:19:25;;;;;;;;;;;36.30;36.80;;;;;;5102010;27;19908;-81
2023/08/13 13:21:50;;;;;;;;;;;36.20;37.40;;;;;;5093696;27;20275;-81
2023/08/13 13:24:16;;;;;;;;;;;36.10;37.20;;;;;;5117712;27;19907;-81
2023/08/13 13:26:41;;;;;;;;;;;36.10;38.40;;;;;;5093438;27;19911;-81
2023/08/13 13:29:07;;;;;;;;;;;35.90;37.50;;;;;;5125054;27;19915;-82
2023/08/13 13:31:32;;;;;;;;;;;35.70;37.20;;;;;;5132183;27;19990;-81
2023/08/13 13:33:58;;;;;;;;;;;35.60;37.50;;;;;;5115887;27;19910;-81
2023/08/13 13:36:23;;;;;;;;;;;35.50;37.80;;;;;;5098714;27;19904;-81
2023/08/13 13:38:49;;;;;;;;;;;35.60;38.30;;;;;;5107329;27;19904;-82
2023/08/13 13:41:14;;;;;;;;;;;36.40;37.70;;;;;;5103696;27;19947;-81
2023/08/13 13:43:40;;;;;;;;;;;36.90;36.90;;;;;;5097796;27;19913;-81
2023/08/13 13:46:05;;;;;;;;;;;37.30;36.40;;;;;;5114719;27;19903;-80
2023/08/13 13:48:31;;;;;;;;;;;37.60;36.20;;;;;;5126106;27;19962;-81
2023/08/13 13:50:56;;;;;;;;;;;37.80;35.90;;;;;;5109562;27;20385;-82
2023/08/13 13:53:22;;;;;;;;;;;37.80;35.70;;;;;;5109093;27;19912;-82
2023/08/13 13:55:48;;;;;;;;;;;37.90;35.90;;;;;;5101957;27;19904;-81
2023/08/13 13:58:13;;;;;;;;;;;37.90;35.70;;;;;;5128981;27;19991;-82
2023/08/13 14:00:39;;;;;;;;;;;37.20;36.70;;;;;;5106966;27;20010;-82
2023/08/13 14:03:04;;;;;;;;;;;37.20;36.50;;;;;;5128876;27;19907;-83